sensor_id;sensor_type;location;lat;lon;timestamp;P1;durP1;ratioP1;P2;durP2;ratioP2
7080;SDS011;3582;51.506;11.948;2024-01-10T00:02:21;49.75;;;28.52;;
7080;SDS011;3582;51.506;11.948;2024-01-10T00:04:47;47.63;;;24.75;;
7080;SDS011;3582;51.506;11.948;2024-01-10T00:07:13;48.90;;;24.03;;
7080;SDS011;3582;51.506;11.948;2024-01-10T00:09:39;51.00;;;26.70;;
7080;SDS011;3582;51.506;11.948;2024-01-10T00:12:05;46.60;;;26.63;;
7080;SDS011;3582;51.506;11.948;2024-01-10T00:14:31;50.55;;;28.40;;
7080;SDS011;3582;51.506;11.948;2024-01-10T00:16:57;51.53;;;25.90;;
7080;SDS011;3582;51.506;11.948;2024-01-10T00:19:23;47.70;;;25.55;;
7080;SDS011;3582;51.506;11.948;2024-01-10T00:21:49;44.90;;;27.57;;
7080;SDS011;3582;51.506;11.948;2024-01-10T00:24:15;50.37;;;26.80;;
7080;SDS011;3582;51.506;11.948;2024-01-10T00:26:41;53.20;;;27.58;;
7080;SDS011;3582;51.506;11.948;2024-01-10T00:29:07;46.73;;;24.93;;
7080;SDS011;3582;51.506;11.948;2024-01-10T00:31:33;44.30;;;23.87;;
7080;SDS011;3582;51.506;11.948;2024-01-10T00:33:59;58.17;;;26.25;;
7080;SDS011;3582;51.506;11.948;2024-01-10T00:36:25;45.60;;;24.97;;
7080;SDS011;3582;51.506;11.948;2024-01-10T00:38:51;43.40;;;26.33;;
7080;SDS011;3582;51.506;11.948;2024-01-10T00:41:17;46.07;;;25.93;;
7080;SDS011;3582;51.506;11.948;2024-01-10T00:43:43;54.67;;;27.47;;
7080;SDS011;3582;51.506;11.948;2024-01-10T00:46:09;47.50;;;26.30;;
7080;SDS011;3582;51.506;11.948;2024-01-10T00:48:35;51.13;;;29.67;;
7080;SDS011;3582;51.506;11.948;2024-01-10T00:51:01;50.43;;;26.50;;
7080;SDS011;3582;51.506;11.948;2024-01-10T00:53:27;60.37;;;27.63;;
7080;SDS011;3582;51.506;11.948;2024-01-10T00:55:52;64.47;;;28.37;;
7080;SDS011;3582;51.506;11.948;2024-01-10T00:58:18;50.97;;;26.60;;
7080;SDS011;3582;51.506;11.948;2024-01-10T01:00:44;55.30;;;27.70;;
7080;SDS011;3582;51.506;11.948;2024-01-10T01:03:10;51.27;;;25.47;;
7080;SDS011;3582;51.506;11.948;2024-01-10T01:05:37;50.40;;;27.48;;
7080;SDS011;3582;51.506;11.948;2024-01-10T01:08:03;65.43;;;29.52;;
7080;SDS011;3582;51.506;11.948;2024-01-10T01:10:29;49.95;;;28.30;;
7080;SDS011;3582;51.506;11.948;2024-01-10T01:12:55;63.85;;;32.20;;
7080;SDS011;3582;51.506;11.948;2024-01-10T01:15:20;58.23;;;30.70;;
7080;SDS011;3582;51.506;11.948;2024-01-10T01:17:46;53.73;;;28.30;;
7080;SDS011;3582;51.506;11.948;2024-01-10T01:20:12;52.57;;;29.40;;
7080;SDS011;3582;51.506;11.948;2024-01-10T01:22:38;54.33;;;27.27;;
7080;SDS011;3582;51.506;11.948;2024-01-10T01:25:04;61.03;;;34.03;;
7080;SDS011;3582;51.506;11.948;2024-01-10T01:27:30;49.53;;;28.55;;
7080;SDS011;3582;51.506;11.948;2024-01-10T01:29:56;48.97;;;24.63;;
7080;SDS011;3582;51.506;11.948;2024-01-10T01:32:22;46.90;;;28.33;;
7080;SDS011;3582;51.506;11.948;2024-01-10T01:34:48;56.83;;;28.57;;
7080;SDS011;3582;51.506;11.948;2024-01-10T01:37:14;59.42;;;32.30;;
7080;SDS011;3582;51.506;11.948;2024-01-10T01:39:40;62.70;;;28.83;;
7080;SDS011;3582;51.506;11.948;2024-01-10T01:42:06;56.17;;;27.80;;
7080;SDS011;3582;51.506;11.948;2024-01-10T01:44:32;51.83;;;29.10;;
7080;SDS011;3582;51.506;11.948;2024-01-10T01:46:58;58.80;;;30.80;;
7080;SDS011;3582;51.506;11.948;2024-01-10T01:49:24;59.75;;;27.75;;
7080;SDS011;3582;51.506;11.948;2024-01-10T01:51:51;59.47;;;30.05;;
7080;SDS011;3582;51.506;11.948;2024-01-10T01:54:17;57.22;;;30.23;;
7080;SDS011;3582;51.506;11.948;2024-01-10T01:56:44;54.35;;;31.23;;
7080;SDS011;3582;51.506;11.948;2024-01-10T01:59:11;58.35;;;29.52;;
7080;SDS011;3582;51.506;11.948;2024-01-10T02:01:37;59.85;;;28.60;;
7080;SDS011;3582;51.506;11.948;2024-01-10T02:04:03;59.25;;;31.17;;
7080;SDS011;3582;51.506;11.948;2024-01-10T02:06:29;45.77;;;27.47;;
7080;SDS011;3582;51.506;11.948;2024-01-10T02:08:56;57.83;;;29.08;;
7080;SDS011;3582;51.506;11.948;2024-01-10T02:11:22;53.75;;;32.10;;
7080;SDS011;3582;51.506;11.948;2024-01-10T02:13:49;51.65;;;27.45;;
7080;SDS011;3582;51.506;11.948;2024-01-10T02:16:16;55.28;;;27.83;;
7080;SDS011;3582;51.506;11.948;2024-01-10T02:18:42;56.30;;;27.67;;
7080;SDS011;3582;51.506;11.948;2024-01-10T02:21:08;57.03;;;31.20;;
7080;SDS011;3582;51.506;11.948;2024-01-10T02:23:34;50.53;;;29.33;;
7080;SDS011;3582;51.506;11.948;2024-01-10T02:26:00;63.03;;;34.83;;
7080;SDS011;3582;51.506;11.948;2024-01-10T02:28:27;56.45;;;32.70;;
7080;SDS011;3582;51.506;11.948;2024-01-10T02:30:53;52.80;;;25.87;;
7080;SDS011;3582;51.506;11.948;2024-01-10T02:33:20;48.38;;;29.02;;
7080;SDS011;3582;51.506;11.948;2024-01-10T02:35:46;54.72;;;29.42;;
7080;SDS011;3582;51.506;11.948;2024-01-10T02:38:12;65.00;;;31.67;;
7080;SDS011;3582;51.506;11.948;2024-01-10T02:40:38;68.30;;;31.37;;
7080;SDS011;3582;51.506;11.948;2024-01-10T02:43:04;61.87;;;31.70;;
7080;SDS011;3582;51.506;11.948;2024-01-10T02:45:32;61.72;;;28.55;;
7080;SDS011;3582;51.506;11.948;2024-01-10T02:47:58;54.45;;;28.98;;
7080;SDS011;3582;51.506;11.948;2024-01-10T02:50:25;56.67;;;29.55;;
7080;SDS011;3582;51.506;11.948;2024-01-10T02:52:51;50.43;;;28.97;;
7080;SDS011;3582;51.506;11.948;2024-01-10T02:55:17;51.43;;;30.87;;
7080;SDS011;3582;51.506;11.948;2024-01-10T02:57:43;50.63;;;28.60;;
7080;SDS011;3582;51.506;11.948;2024-01-10T03:00:09;63.70;;;30.40;;
7080;SDS011;3582;51.506;11.948;2024-01-10T03:02:36;49.08;;;27.35;;
7080;SDS011;3582;51.506;11.948;2024-01-10T03:05:02;58.93;;;28.50;;
7080;SDS011;3582;51.506;11.948;2024-01-10T03:07:28;58.25;;;32.38;;
7080;SDS011;3582;51.506;11.948;2024-01-10T03:09:53;60.13;;;31.23;;
7080;SDS011;3582;51.506;11.948;2024-01-10T03:12:19;58.97;;;30.53;;
7080;SDS011;3582;51.506;11.948;2024-01-10T03:14:45;61.80;;;31.33;;
7080;SDS011;3582;51.506;11.948;2024-01-10T03:17:11;54.67;;;29.05;;
7080;SDS011;3582;51.506;11.948;2024-01-10T03:19:37;69.43;;;32.03;;
7080;SDS011;3582;51.506;11.948;2024-01-10T03:22:07;67.03;;;31.42;;
7080;SDS011;3582;51.506;11.948;2024-01-10T03:24:33;52.28;;;30.13;;
7080;SDS011;3582;51.506;11.948;2024-01-10T03:26:59;46.00;;;30.67;;
7080;SDS011;3582;51.506;11.948;2024-01-10T03:29:25;55.33;;;31.13;;
7080;SDS011;3582;51.506;11.948;2024-01-10T03:31:51;50.53;;;28.73;;
7080;SDS011;3582;51.506;11.948;2024-01-10T03:34:17;61.40;;;32.47;;
7080;SDS011;3582;51.506;11.948;2024-01-10T03:36:43;52.13;;;30.88;;
7080;SDS011;3582;51.506;11.948;2024-01-10T03:39:09;61.72;;;31.85;;
7080;SDS011;3582;51.506;11.948;2024-01-10T03:41:35;61.35;;;33.40;;
7080;SDS011;3582;51.506;11.948;2024-01-10T03:44:01;77.73;;;32.50;;
7080;SDS011;3582;51.506;11.948;2024-01-10T03:46:27;58.38;;;32.75;;
7080;SDS011;3582;51.506;11.948;2024-01-10T03:48:53;64.13;;;31.65;;
7080;SDS011;3582;51.506;11.948;2024-01-10T03:51:19;52.65;;;30.58;;
7080;SDS011;3582;51.506;11.948;2024-01-10T03:53:46;59.30;;;30.08;;
7080;SDS011;3582;51.506;11.948;2024-01-10T03:56:14;62.08;;;32.85;;
7080;SDS011;3582;51.506;11.948;2024-01-10T03:58:40;58.53;;;31.25;;
7080;SDS011;3582;51.506;11.948;2024-01-10T04:01:06;57.53;;;31.30;;
7080;SDS011;3582;51.506;11.948;2024-01-10T04:03:32;67.90;;;33.25;;
7080;SDS011;3582;51.506;11.948;2024-01-10T04:05:59;73.35;;;35.75;;
7080;SDS011;3582;51.506;11.948;2024-01-10T04:08:25;71.07;;;34.13;;
7080;SDS011;3582;51.506;11.948;2024-01-10T04:10:51;64.70;;;30.90;;
7080;SDS011;3582;51.506;11.948;2024-01-10T04:13:17;69.82;;;33.38;;
7080;SDS011;3582;51.506;11.948;2024-01-10T04:15:43;55.43;;;30.63;;
7080;SDS011;3582;51.506;11.948;2024-01-10T04:18:09;58.83;;;33.63;;
7080;SDS011;3582;51.506;11.948;2024-01-10T04:20:35;61.73;;;29.63;;
7080;SDS011;3582;51.506;11.948;2024-01-10T04:23:01;58.88;;;33.10;;
7080;SDS011;3582;51.506;11.948;2024-01-10T04:25:27;68.03;;;34.28;;
7080;SDS011;3582;51.506;11.948;2024-01-10T04:27:53;68.10;;;33.70;;
7080;SDS011;3582;51.506;11.948;2024-01-10T04:30:20;65.35;;;29.65;;
7080;SDS011;3582;51.506;11.948;2024-01-10T04:32:46;59.60;;;34.73;;
7080;SDS011;3582;51.506;11.948;2024-01-10T04:35:12;68.63;;;30.73;;
7080;SDS011;3582;51.506;11.948;2024-01-10T04:37:38;74.77;;;35.03;;
7080;SDS011;3582;51.506;11.948;2024-01-10T04:40:04;63.42;;;33.00;;
7080;SDS011;3582;51.506;11.948;2024-01-10T04:42:30;52.00;;;29.35;;
7080;SDS011;3582;51.506;11.948;2024-01-10T04:44:56;56.08;;;30.30;;
7080;SDS011;3582;51.506;11.948;2024-01-10T04:47:22;59.15;;;31.02;;
7080;SDS011;3582;51.506;11.948;2024-01-10T04:49:48;68.30;;;33.63;;
7080;SDS011;3582;51.506;11.948;2024-01-10T04:52:14;61.77;;;35.27;;
7080;SDS011;3582;51.506;11.948;2024-01-10T04:54:40;74.55;;;36.42;;
7080;SDS011;3582;51.506;11.948;2024-01-10T04:57:06;62.70;;;34.60;;
7080;SDS011;3582;51.506;11.948;2024-01-10T04:59:32;49.28;;;31.98;;
7080;SDS011;3582;51.506;11.948;2024-01-10T05:01:58;55.63;;;29.88;;
7080;SDS011;3582;51.506;11.948;2024-01-10T05:04:24;59.65;;;32.08;;
7080;SDS011;3582;51.506;11.948;2024-01-10T05:06:50;65.30;;;33.10;;
7080;SDS011;3582;51.506;11.948;2024-01-10T05:09:16;81.18;;;34.00;;
7080;SDS011;3582;51.506;11.948;2024-01-10T05:11:42;64.13;;;34.60;;
7080;SDS011;3582;51.506;11.948;2024-01-10T05:14:08;66.70;;;35.33;;
7080;SDS011;3582;51.506;11.948;2024-01-10T05:16:34;55.20;;;28.10;;
7080;SDS011;3582;51.506;11.948;2024-01-10T05:19:00;57.13;;;31.30;;
7080;SDS011;3582;51.506;11.948;2024-01-10T05:21:30;57.70;;;31.98;;
7080;SDS011;3582;51.506;11.948;2024-01-10T05:23:56;58.28;;;32.42;;
7080;SDS011;3582;51.506;11.948;2024-01-10T05:26:22;62.30;;;31.77;;
7080;SDS011;3582;51.506;11.948;2024-01-10T05:28:48;64.10;;;29.88;;
7080;SDS011;3582;51.506;11.948;2024-01-10T05:31:14;63.57;;;30.20;;
7080;SDS011;3582;51.506;11.948;2024-01-10T05:33:40;63.33;;;30.37;;
7080;SDS011;3582;51.506;11.948;2024-01-10T05:36:07;74.00;;;32.72;;
7080;SDS011;3582;51.506;11.948;2024-01-10T05:38:36;55.03;;;31.90;;
7080;SDS011;3582;51.506;11.948;2024-01-10T05:41:02;69.87;;;32.33;;
7080;SDS011;3582;51.506;11.948;2024-01-10T05:43:27;65.27;;;31.50;;
7080;SDS011;3582;51.506;11.948;2024-01-10T05:45:53;64.70;;;32.00;;
7080;SDS011;3582;51.506;11.948;2024-01-10T05:48:19;53.57;;;28.83;;
7080;SDS011;3582;51.506;11.948;2024-01-10T05:50:45;58.15;;;31.40;;
7080;SDS011;3582;51.506;11.948;2024-01-10T05:53:11;70.60;;;30.70;;
7080;SDS011;3582;51.506;11.948;2024-01-10T05:55:41;71.43;;;33.60;;
7080;SDS011;3582;51.506;11.948;2024-01-10T05:58:07;49.40;;;31.90;;
7080;SDS011;3582;51.506;11.948;2024-01-10T06:00:34;69.25;;;34.05;;
7080;SDS011;3582;51.506;11.948;2024-01-10T06:03:00;69.13;;;35.90;;
7080;SDS011;3582;51.506;11.948;2024-01-10T06:05:26;66.50;;;33.07;;
7080;SDS011;3582;51.506;11.948;2024-01-10T06:07:52;65.70;;;32.13;;
7080;SDS011;3582;51.506;11.948;2024-01-10T06:10:18;62.50;;;33.53;;
7080;SDS011;3582;51.506;11.948;2024-01-10T06:12:44;75.25;;;32.97;;
7080;SDS011;3582;51.506;11.948;2024-01-10T06:15:10;65.22;;;34.75;;
7080;SDS011;3582;51.506;11.948;2024-01-10T06:17:36;70.43;;;34.95;;
7080;SDS011;3582;51.506;11.948;2024-01-10T06:20:03;68.65;;;35.17;;
7080;SDS011;3582;51.506;11.948;2024-01-10T06:22:29;70.25;;;34.10;;
7080;SDS011;3582;51.506;11.948;2024-01-10T06:24:55;71.00;;;35.77;;
7080;SDS011;3582;51.506;11.948;2024-01-10T06:27:21;79.50;;;41.20;;
7080;SDS011;3582;51.506;11.948;2024-01-10T06:29:47;71.53;;;38.03;;
7080;SDS011;3582;51.506;11.948;2024-01-10T06:32:13;69.07;;;35.65;;
7080;SDS011;3582;51.506;11.948;2024-01-10T06:34:39;73.47;;;35.33;;
7080;SDS011;3582;51.506;11.948;2024-01-10T06:37:05;69.00;;;35.00;;
7080;SDS011;3582;51.506;11.948;2024-01-10T06:39:34;68.78;;;33.55;;
7080;SDS011;3582;51.506;11.948;2024-01-10T06:42:00;65.53;;;33.20;;
7080;SDS011;3582;51.506;11.948;2024-01-10T06:44:28;59.65;;;31.70;;
7080;SDS011;3582;51.506;11.948;2024-01-10T06:46:54;65.45;;;34.70;;
7080;SDS011;3582;51.506;11.948;2024-01-10T06:49:20;64.63;;;35.77;;
7080;SDS011;3582;51.506;11.948;2024-01-10T06:51:46;78.37;;;40.13;;
7080;SDS011;3582;51.506;11.948;2024-01-10T06:54:12;52.70;;;31.20;;
7080;SDS011;3582;51.506;11.948;2024-01-10T06:56:39;68.07;;;32.20;;
7080;SDS011;3582;51.506;11.948;2024-01-10T06:59:06;66.95;;;35.38;;
7080;SDS011;3582;51.506;11.948;2024-01-10T07:01:32;72.27;;;34.67;;
7080;SDS011;3582;51.506;11.948;2024-01-10T07:03:57;69.03;;;35.10;;
7080;SDS011;3582;51.506;11.948;2024-01-10T07:06:24;70.32;;;34.95;;
7080;SDS011;3582;51.506;11.948;2024-01-10T07:08:50;68.18;;;30.13;;
7080;SDS011;3582;51.506;11.948;2024-01-10T07:11:19;66.35;;;36.75;;
7080;SDS011;3582;51.506;11.948;2024-01-10T07:13:45;79.60;;;38.70;;
7080;SDS011;3582;51.506;11.948;2024-01-10T07:16:11;67.93;;;34.87;;
7080;SDS011;3582;51.506;11.948;2024-01-10T07:18:39;63.55;;;37.95;;
7080;SDS011;3582;51.506;11.948;2024-01-10T07:21:05;66.07;;;34.00;;
7080;SDS011;3582;51.506;11.948;2024-01-10T07:23:31;73.00;;;35.57;;
7080;SDS011;3582;51.506;11.948;2024-01-10T07:25:58;71.90;;;35.60;;
7080;SDS011;3582;51.506;11.948;2024-01-10T07:28:25;74.60;;;38.47;;
7080;SDS011;3582;51.506;11.948;2024-01-10T07:30:50;68.33;;;35.90;;
7080;SDS011;3582;51.506;11.948;2024-01-10T07:33:16;66.40;;;33.30;;
7080;SDS011;3582;51.506;11.948;2024-01-10T07:35:43;66.95;;;38.47;;
7080;SDS011;3582;51.506;11.948;2024-01-10T07:38:09;69.10;;;33.83;;
7080;SDS011;3582;51.506;11.948;2024-01-10T07:40:35;65.07;;;34.40;;
7080;SDS011;3582;51.506;11.948;2024-01-10T07:43:01;93.90;;;37.47;;
7080;SDS011;3582;51.506;11.948;2024-01-10T07:45:27;70.13;;;36.90;;
7080;SDS011;3582;51.506;11.948;2024-01-10T07:47:53;73.00;;;39.10;;
7080;SDS011;3582;51.506;11.948;2024-01-10T07:50:19;69.45;;;37.55;;
7080;SDS011;3582;51.506;11.948;2024-01-10T07:52:45;79.13;;;38.17;;
7080;SDS011;3582;51.506;11.948;2024-01-10T07:55:11;85.32;;;44.30;;
7080;SDS011;3582;51.506;11.948;2024-01-10T07:57:37;65.40;;;36.78;;
7080;SDS011;3582;51.506;11.948;2024-01-10T08:00:04;67.75;;;34.60;;
7080;SDS011;3582;51.506;11.948;2024-01-10T08:02:30;75.30;;;36.67;;
7080;SDS011;3582;51.506;11.948;2024-01-10T08:05:02;83.13;;;42.47;;
7080;SDS011;3582;51.506;11.948;2024-01-10T08:07:31;73.85;;;36.60;;
7080;SDS011;3582;51.506;11.948;2024-01-10T08:10:02;77.20;;;36.28;;
7080;SDS011;3582;51.506;11.948;2024-01-10T08:12:29;78.95;;;37.72;;
7080;SDS011;3582;51.506;11.948;2024-01-10T08:14:55;80.17;;;36.03;;
7080;SDS011;3582;51.506;11.948;2024-01-10T08:17:21;71.97;;;36.47;;
7080;SDS011;3582;51.506;11.948;2024-01-10T08:19:48;64.38;;;35.78;;
7080;SDS011;3582;51.506;11.948;2024-01-10T08:22:14;54.67;;;34.00;;
7080;SDS011;3582;51.506;11.948;2024-01-10T08:24:40;74.40;;;36.00;;
7080;SDS011;3582;51.506;11.948;2024-01-10T08:27:06;71.90;;;36.43;;
7080;SDS011;3582;51.506;11.948;2024-01-10T08:29:32;69.18;;;36.47;;
7080;SDS011;3582;51.506;11.948;2024-01-10T08:31:58;67.43;;;37.83;;
7080;SDS011;3582;51.506;11.948;2024-01-10T08:34:24;60.60;;;36.95;;
7080;SDS011;3582;51.506;11.948;2024-01-10T08:36:51;88.22;;;41.22;;
7080;SDS011;3582;51.506;11.948;2024-01-10T08:39:18;84.97;;;37.65;;
7080;SDS011;3582;51.506;11.948;2024-01-10T08:41:44;83.38;;;36.78;;
7080;SDS011;3582;51.506;11.948;2024-01-10T08:44:10;81.10;;;38.83;;
7080;SDS011;3582;51.506;11.948;2024-01-10T08:46:36;76.97;;;37.45;;
7080;SDS011;3582;51.506;11.948;2024-01-10T08:49:02;92.03;;;40.60;;
7080;SDS011;3582;51.506;11.948;2024-01-10T08:51:28;73.63;;;39.10;;
7080;SDS011;3582;51.506;11.948;2024-01-10T08:53:54;64.75;;;34.90;;
7080;SDS011;3582;51.506;11.948;2024-01-10T08:56:21;66.22;;;38.60;;
7080;SDS011;3582;51.506;11.948;2024-01-10T08:58:47;77.75;;;42.63;;
7080;SDS011;3582;51.506;11.948;2024-01-10T09:01:13;78.40;;;38.80;;
7080;SDS011;3582;51.506;11.948;2024-01-10T09:03:39;69.27;;;36.40;;
7080;SDS011;3582;51.506;11.948;2024-01-10T09:06:05;64.80;;;37.40;;
7080;SDS011;3582;51.506;11.948;2024-01-10T09:08:32;69.63;;;35.95;;
7080;SDS011;3582;51.506;11.948;2024-01-10T09:10:58;66.65;;;37.03;;
7080;SDS011;3582;51.506;11.948;2024-01-10T09:13:24;77.37;;;38.73;;
7080;SDS011;3582;51.506;11.948;2024-01-10T09:15:50;70.87;;;36.93;;
7080;SDS011;3582;51.506;11.948;2024-01-10T09:18:16;70.47;;;38.83;;
7080;SDS011;3582;51.506;11.948;2024-01-10T09:20:42;75.63;;;39.60;;
7080;SDS011;3582;51.506;11.948;2024-01-10T09:23:08;66.00;;;36.50;;
7080;SDS011;3582;51.506;11.948;2024-01-10T09:25:35;80.25;;;38.60;;
7080;SDS011;3582;51.506;11.948;2024-01-10T09:28:01;73.20;;;40.60;;
7080;SDS011;3582;51.506;11.948;2024-01-10T09:30:27;65.82;;;41.58;;
7080;SDS011;3582;51.506;11.948;2024-01-10T09:32:53;72.33;;;37.97;;
7080;SDS011;3582;51.506;11.948;2024-01-10T09:35:19;63.20;;;39.30;;
7080;SDS011;3582;51.506;11.948;2024-01-10T09:37:45;74.30;;;39.47;;
7080;SDS011;3582;51.506;11.948;2024-01-10T09:40:11;76.95;;;41.80;;
7080;SDS011;3582;51.506;11.948;2024-01-10T09:42:39;73.97;;;38.30;;
7080;SDS011;3582;51.506;11.948;2024-01-10T09:45:06;77.28;;;39.42;;
7080;SDS011;3582;51.506;11.948;2024-01-10T09:47:33;73.47;;;41.28;;
7080;SDS011;3582;51.506;11.948;2024-01-10T09:50:01;71.93;;;37.72;;
7080;SDS011;3582;51.506;11.948;2024-01-10T09:52:29;80.05;;;43.13;;
7080;SDS011;3582;51.506;11.948;2024-01-10T09:55:00;66.18;;;36.78;;
7080;SDS011;3582;51.506;11.948;2024-01-10T09:57:26;72.05;;;36.15;;
7080;SDS011;3582;51.506;11.948;2024-01-10T09:59:52;68.80;;;35.85;;
7080;SDS011;3582;51.506;11.948;2024-01-10T10:02:21;67.30;;;34.83;;
7080;SDS011;3582;51.506;11.948;2024-01-10T10:04:52;62.05;;;37.15;;
7080;SDS011;3582;51.506;11.948;2024-01-10T10:07:19;66.57;;;36.88;;
7080;SDS011;3582;51.506;11.948;2024-01-10T10:09:45;59.65;;;39.35;;
7080;SDS011;3582;51.506;11.948;2024-01-10T10:12:11;77.07;;;43.33;;
7080;SDS011;3582;51.506;11.948;2024-01-10T10:14:37;68.53;;;36.20;;
7080;SDS011;3582;51.506;11.948;2024-01-10T10:17:13;70.53;;;37.75;;
7080;SDS011;3582;51.506;11.948;2024-01-10T10:19:40;62.42;;;38.63;;
7080;SDS011;3582;51.506;11.948;2024-01-10T10:22:09;85.80;;;40.90;;
7080;SDS011;3582;51.506;11.948;2024-01-10T10:24:35;62.65;;;37.95;;
7080;SDS011;3582;51.506;11.948;2024-01-10T10:27:01;69.13;;;39.72;;
7080;SDS011;3582;51.506;11.948;2024-01-10T10:29:27;71.80;;;37.20;;
7080;SDS011;3582;51.506;11.948;2024-01-10T10:31:54;67.53;;;36.43;;
7080;SDS011;3582;51.506;11.948;2024-01-10T10:34:21;77.43;;;40.38;;
7080;SDS011;3582;51.506;11.948;2024-01-10T10:36:50;64.95;;;40.30;;
7080;SDS011;3582;51.506;11.948;2024-01-10T10:39:16;68.32;;;38.83;;
7080;SDS011;3582;51.506;11.948;2024-01-10T10:41:42;74.47;;;37.70;;
7080;SDS011;3582;51.506;11.948;2024-01-10T10:44:09;89.85;;;40.78;;
7080;SDS011;3582;51.506;11.948;2024-01-10T10:46:35;79.10;;;39.40;;
7080;SDS011;3582;51.506;11.948;2024-01-10T10:49:05;57.97;;;33.50;;
7080;SDS011;3582;51.506;11.948;2024-01-10T10:51:33;63.92;;;37.38;;
7080;SDS011;3582;51.506;11.948;2024-01-10T10:53:59;66.22;;;38.97;;
7080;SDS011;3582;51.506;11.948;2024-01-10T10:56:27;83.47;;;39.42;;
7080;SDS011;3582;51.506;11.948;2024-01-10T10:58:55;68.47;;;40.15;;
7080;SDS011;3582;51.506;11.948;2024-01-10T11:01:22;65.70;;;37.92;;
7080;SDS011;3582;51.506;11.948;2024-01-10T11:03:49;65.85;;;35.45;;
7080;SDS011;3582;51.506;11.948;2024-01-10T11:06:15;68.65;;;41.33;;
7080;SDS011;3582;51.506;11.948;2024-01-10T11:08:47;82.63;;;42.58;;
7080;SDS011;3582;51.506;11.948;2024-01-10T11:11:30;66.90;;;37.85;;
7080;SDS011;3582;51.506;11.948;2024-01-10T11:16:44;58.95;;;38.20;;
7080;SDS011;3582;51.506;11.948;2024-01-10T11:24:43;71.47;;;35.97;;
7080;SDS011;3582;51.506;11.948;2024-01-10T11:27:13;77.60;;;41.95;;
7080;SDS011;3582;51.506;11.948;2024-01-10T11:29:40;69.47;;;40.58;;
7080;SDS011;3582;51.506;11.948;2024-01-10T11:32:07;76.05;;;41.35;;
7080;SDS011;3582;51.506;11.948;2024-01-10T11:34:34;71.85;;;42.85;;
7080;SDS011;3582;51.506;11.948;2024-01-10T11:37:10;77.35;;;39.60;;
7080;SDS011;3582;51.506;11.948;2024-01-10T11:39:36;56.17;;;34.45;;
7080;SDS011;3582;51.506;11.948;2024-01-10T11:42:03;63.90;;;38.97;;
7080;SDS011;3582;51.506;11.948;2024-01-10T11:44:29;89.13;;;43.03;;
7080;SDS011;3582;51.506;11.948;2024-01-10T11:46:56;66.68;;;34.30;;
7080;SDS011;3582;51.506;11.948;2024-01-10T11:49:23;69.95;;;41.00;;
7080;SDS011;3582;51.506;11.948;2024-01-10T11:51:49;67.15;;;38.88;;
7080;SDS011;3582;51.506;11.948;2024-01-10T11:57:00;66.50;;;37.67;;
7080;SDS011;3582;51.506;11.948;2024-01-10T11:59:26;66.38;;;36.70;;
7080;SDS011;3582;51.506;11.948;2024-01-10T12:01:52;72.18;;;38.72;;
7080;SDS011;3582;51.506;11.948;2024-01-10T12:04:19;70.78;;;38.92;;
7080;SDS011;3582;51.506;11.948;2024-01-10T12:06:46;69.93;;;37.85;;
7080;SDS011;3582;51.506;11.948;2024-01-10T12:09:12;76.43;;;39.47;;
7080;SDS011;3582;51.506;11.948;2024-01-10T12:11:39;72.55;;;41.35;;
7080;SDS011;3582;51.506;11.948;2024-01-10T12:14:05;61.88;;;36.83;;
7080;SDS011;3582;51.506;11.948;2024-01-10T12:16:32;67.90;;;38.88;;
7080;SDS011;3582;51.506;11.948;2024-01-10T12:18:58;62.42;;;35.95;;
7080;SDS011;3582;51.506;11.948;2024-01-10T12:21:24;108.20;;;43.73;;
7080;SDS011;3582;51.506;11.948;2024-01-10T12:23:50;76.13;;;40.00;;
7080;SDS011;3582;51.506;11.948;2024-01-10T12:26:19;51.72;;;36.63;;
7080;SDS011;3582;51.506;11.948;2024-01-10T12:28:54;81.05;;;40.42;;
7080;SDS011;3582;51.506;11.948;2024-01-10T12:31:20;69.93;;;38.30;;
7080;SDS011;3582;51.506;11.948;2024-01-10T12:33:50;83.10;;;42.65;;
7080;SDS011;3582;51.506;11.948;2024-01-10T12:36:17;63.60;;;37.75;;
7080;SDS011;3582;51.506;11.948;2024-01-10T12:38:43;72.97;;;36.72;;
7080;SDS011;3582;51.506;11.948;2024-01-10T12:41:12;62.40;;;35.83;;
7080;SDS011;3582;51.506;11.948;2024-01-10T12:43:39;73.85;;;39.40;;
7080;SDS011;3582;51.506;11.948;2024-01-10T12:46:11;70.40;;;40.20;;
7080;SDS011;3582;51.506;11.948;2024-01-10T12:48:38;74.88;;;38.63;;
7080;SDS011;3582;51.506;11.948;2024-01-10T12:51:08;63.03;;;37.60;;
7080;SDS011;3582;51.506;11.948;2024-01-10T12:53:35;68.20;;;38.25;;
7080;SDS011;3582;51.506;11.948;2024-01-10T12:56:04;75.20;;;41.05;;
7080;SDS011;3582;51.506;11.948;2024-01-10T12:58:31;67.47;;;35.72;;
7080;SDS011;3582;51.506;11.948;2024-01-10T13:00:57;74.95;;;39.28;;
7080;SDS011;3582;51.506;11.948;2024-01-10T13:03:23;78.67;;;40.73;;
7080;SDS011;3582;51.506;11.948;2024-01-10T13:05:50;65.15;;;36.85;;
7080;SDS011;3582;51.506;11.948;2024-01-10T13:08:16;72.93;;;39.40;;
7080;SDS011;3582;51.506;11.948;2024-01-10T13:10:42;73.97;;;40.10;;
7080;SDS011;3582;51.506;11.948;2024-01-10T13:13:08;68.13;;;38.90;;
7080;SDS011;3582;51.506;11.948;2024-01-10T13:15:34;65.57;;;38.67;;
7080;SDS011;3582;51.506;11.948;2024-01-10T13:18:00;74.15;;;43.28;;
7080;SDS011;3582;51.506;11.948;2024-01-10T13:20:25;70.30;;;38.70;;
7080;SDS011;3582;51.506;11.948;2024-01-10T13:22:52;67.72;;;41.95;;
7080;SDS011;3582;51.506;11.948;2024-01-10T13:25:19;73.53;;;36.97;;
7080;SDS011;3582;51.506;11.948;2024-01-10T13:27:48;59.50;;;41.42;;
7080;SDS011;3582;51.506;11.948;2024-01-10T13:30:14;74.07;;;41.85;;
7080;SDS011;3582;51.506;11.948;2024-01-10T13:32:40;66.60;;;41.00;;
7080;SDS011;3582;51.506;11.948;2024-01-10T13:35:06;56.57;;;36.83;;
7080;SDS011;3582;51.506;11.948;2024-01-10T13:37:32;63.88;;;36.67;;
7080;SDS011;3582;51.506;11.948;2024-01-10T13:39:59;65.88;;;38.15;;
7080;SDS011;3582;51.506;11.948;2024-01-10T13:42:24;71.03;;;38.30;;
7080;SDS011;3582;51.506;11.948;2024-01-10T13:44:50;77.40;;;38.95;;
7080;SDS011;3582;51.506;11.948;2024-01-10T13:47:19;74.27;;;38.77;;
7080;SDS011;3582;51.506;11.948;2024-01-10T13:49:46;60.35;;;37.05;;
7080;SDS011;3582;51.506;11.948;2024-01-10T13:52:12;76.65;;;38.28;;
7080;SDS011;3582;51.506;11.948;2024-01-10T13:54:38;75.60;;;43.17;;
7080;SDS011;3582;51.506;11.948;2024-01-10T13:57:04;79.85;;;38.05;;
7080;SDS011;3582;51.506;11.948;2024-01-10T13:59:30;72.68;;;41.75;;
7080;SDS011;3582;51.506;11.948;2024-01-10T14:01:57;71.18;;;40.65;;
7080;SDS011;3582;51.506;11.948;2024-01-10T14:04:24;63.15;;;37.60;;
7080;SDS011;3582;51.506;11.948;2024-01-10T14:06:50;59.97;;;36.22;;
7080;SDS011;3582;51.506;11.948;2024-01-10T14:09:16;78.88;;;39.70;;
7080;SDS011;3582;51.506;11.948;2024-01-10T14:11:43;75.53;;;40.30;;
7080;SDS011;3582;51.506;11.948;2024-01-10T14:14:09;74.40;;;43.55;;
7080;SDS011;3582;51.506;11.948;2024-01-10T14:16:35;68.55;;;41.58;;
7080;SDS011;3582;51.506;11.948;2024-01-10T14:19:02;72.80;;;41.55;;
7080;SDS011;3582;51.506;11.948;2024-01-10T14:21:28;79.47;;;40.58;;
7080;SDS011;3582;51.506;11.948;2024-01-10T14:23:56;76.32;;;39.42;;
7080;SDS011;3582;51.506;11.948;2024-01-10T14:26:22;72.30;;;42.20;;
7080;SDS011;3582;51.506;11.948;2024-01-10T14:28:49;74.72;;;42.20;;
7080;SDS011;3582;51.506;11.948;2024-01-10T14:31:17;89.15;;;46.08;;
7080;SDS011;3582;51.506;11.948;2024-01-10T14:33:44;62.20;;;39.25;;
7080;SDS011;3582;51.506;11.948;2024-01-10T14:36:10;78.63;;;41.53;;
7080;SDS011;3582;51.506;11.948;2024-01-10T14:38:35;77.65;;;43.75;;
7080;SDS011;3582;51.506;11.948;2024-01-10T14:41:03;74.38;;;44.80;;